sensor_id;sensor_type;location;lat;lon;timestamp;P1;durP1;ratioP1;P2;durP2;ratioP2
61104;SDS011;46987;32.638;-115.438;2022-12-18T00:00:11;8.70;;;1.92;;
61104;SDS011;46987;32.638;-115.438;2022-12-18T00:02:40;6.65;;;2.08;;
61104;SDS011;46987;32.638;-115.438;2022-12-18T00:05:07;4.43;;;1.67;;
61104;SDS011;46987;32.638;-115.438;2022-12-18T00:07:36;5.95;;;1.92;;
61104;SDS011;46987;32.638;-115.438;2022-12-18T00:10:08;5.05;;;1.95;;
61104;SDS011;46987;32.638;-115.438;2022-12-18T00:12:35;5.28;;;1.83;;
61104;SDS011;46987;32.638;-115.438;2022-12-18T00:18:40;5.72;;;1.58;;
61104;SDS011;46987;32.638;-115.438;2022-12-18T00:31:36;11.95;;;2.35;;
61104;SDS011;46987;32.638;-115.438;2022-12-18T00:34:47;13.23;;;2.80;;
61104;SDS011;46987;32.638;-115.438;2022-12-18T00:37:59;10.30;;;3.17;;
61104;SDS011;46987;32.638;-115.438;2022-12-18T00:44:19;14.23;;;7.63;;
61104;SDS011;46987;32.638;-115.438;2022-12-18T00:46:48;12.88;;;6.22;;
61104;SDS011;46987;32.638;-115.438;2022-12-18T00:49:40;10.15;;;5.40;;
61104;SDS011;46987;32.638;-115.438;2022-12-18T00:52:43;9.57;;;3.90;;
61104;SDS011;46987;32.638;-115.438;2022-12-18T00:55:11;16.65;;;4.55;;
61104;SDS011;46987;32.638;-115.438;2022-12-18T00:57:38;14.25;;;6.68;;
61104;SDS011;46987;32.638;-115.438;2022-12-18T01:00:05;15.18;;;8.05;;
61104;SDS011;46987;32.638;-115.438;2022-12-18T01:02:34;14.63;;;7.25;;
61104;SDS011;46987;32.638;-115.438;2022-12-18T01:05:01;12.18;;;5.63;;
61104;SDS011;46987;32.638;-115.438;2022-12-18T01:07:28;9.05;;;4.60;;
61104;SDS011;46987;32.638;-115.438;2022-12-18T01:09:55;7.80;;;3.75;;
61104;SDS011;46987;32.638;-115.438;2022-12-18T01:12:21;15.10;;;5.50;;
61104;SDS011;46987;32.638;-115.438;2022-12-18T01:14:50;9.80;;;3.53;;
61104;SDS011;46987;32.638;-115.438;2022-12-18T01:17:16;9.90;;;3.45;;
61104;SDS011;46987;32.638;-115.438;2022-12-18T01:19:44;9.85;;;3.95;;
61104;SDS011;46987;32.638;-115.438;2022-12-18T01:22:11;16.92;;;5.57;;
61104;SDS011;46987;32.638;-115.438;2022-12-18T01:24:38;12.77;;;7.28;;
61104;SDS011;46987;32.638;-115.438;2022-12-18T01:27:04;17.65;;;6.85;;
61104;SDS011;46987;32.638;-115.438;2022-12-18T01:29:31;18.92;;;8.20;;
61104;SDS011;46987;32.638;-115.438;2022-12-18T01:31:57;22.52;;;7.43;;
61104;SDS011;46987;32.638;-115.438;2022-12-18T01:34:24;13.40;;;6.50;;
61104;SDS011;46987;32.638;-115.438;2022-12-18T01:36:53;20.65;;;6.80;;
61104;SDS011;46987;32.638;-115.438;2022-12-18T01:39:19;14.68;;;6.43;;
61104;SDS011;46987;32.638;-115.438;2022-12-18T01:41:46;17.48;;;7.35;;
61104;SDS011;46987;32.638;-115.438;2022-12-18T01:47:16;24.70;;;9.95;;
61104;SDS011;46987;32.638;-115.438;2022-12-18T01:49:44;26.27;;;11.57;;
61104;SDS011;46987;32.638;-115.438;2022-12-18T01:52:12;30.90;;;13.13;;
61104;SDS011;46987;32.638;-115.438;2022-12-18T01:54:40;30.48;;;14.45;;
61104;SDS011;46987;32.638;-115.438;2022-12-18T01:57:06;31.63;;;15.40;;
61104;SDS011;46987;32.638;-115.438;2022-12-18T01:59:33;35.50;;;18.27;;
61104;SDS011;46987;32.638;-115.438;2022-12-18T02:02:00;37.65;;;16.17;;
61104;SDS011;46987;32.638;-115.438;2022-12-18T02:04:29;26.98;;;12.93;;
61104;SDS011;46987;32.638;-115.438;2022-12-18T02:06:57;23.10;;;13.55;;
61104;SDS011;46987;32.638;-115.438;2022-12-18T02:09:28;25.52;;;12.00;;
61104;SDS011;46987;32.638;-115.438;2022-12-18T02:11:57;29.45;;;12.98;;
61104;SDS011;46987;32.638;-115.438;2022-12-18T02:14:28;30.10;;;12.13;;
61104;SDS011;46987;32.638;-115.438;2022-12-18T02:16:59;33.45;;;14.30;;
61104;SDS011;46987;32.638;-115.438;2022-12-18T02:19:41;27.30;;;14.02;;
61104;SDS011;46987;32.638;-115.438;2022-12-18T02:22:17;31.95;;;14.77;;
61104;SDS011;46987;32.638;-115.438;2022-12-18T02:24:52;37.00;;;15.75;;
61104;SDS011;46987;32.638;-115.438;2022-12-18T02:27:22;31.55;;;12.90;;
61104;SDS011;46987;32.638;-115.438;2022-12-18T02:29:49;30.80;;;12.13;;
61104;SDS011;46987;32.638;-115.438;2022-12-18T02:32:18;24.02;;;11.75;;
61104;SDS011;46987;32.638;-115.438;2022-12-18T02:34:46;37.67;;;17.67;;
61104;SDS011;46987;32.638;-115.438;2022-12-18T02:37:15;26.23;;;13.23;;
61104;SDS011;46987;32.638;-115.438;2022-12-18T02:39:43;30.35;;;13.25;;
61104;SDS011;46987;32.638;-115.438;2022-12-18T02:42:12;30.30;;;13.65;;
61104;SDS011;46987;32.638;-115.438;2022-12-18T02:44:45;29.98;;;12.60;;
61104;SDS011;46987;32.638;-115.438;2022-12-18T02:47:14;31.67;;;13.38;;
61104;SDS011;46987;32.638;-115.438;2022-12-18T02:49:44;28.05;;;13.38;;
61104;SDS011;46987;32.638;-115.438;2022-12-18T02:52:17;24.50;;;13.75;;
61104;SDS011;46987;32.638;-115.438;2022-12-18T02:54:52;103.70;;;62.08;;
61104;SDS011;46987;32.638;-115.438;2022-12-18T02:57:24;78.15;;;42.72;;
61104;SDS011;46987;32.638;-115.438;2022-12-18T02:59:58;80.13;;;45.13;;
61104;SDS011;46987;32.638;-115.438;2022-12-18T03:02:33;66.75;;;40.13;;
61104;SDS011;46987;32.638;-115.438;2022-12-18T03:05:09;66.07;;;36.03;;
61104;SDS011;46987;32.638;-115.438;2022-12-18T03:07:39;60.05;;;35.25;;
61104;SDS011;46987;32.638;-115.438;2022-12-18T03:10:10;60.03;;;36.20;;
61104;SDS011;46987;32.638;-115.438;2022-12-18T03:12:38;67.45;;;39.65;;
61104;SDS011;46987;32.638;-115.438;2022-12-18T03:15:08;61.05;;;38.13;;
61104;SDS011;46987;32.638;-115.438;2022-12-18T03:17:37;62.97;;;37.20;;
61104;SDS011;46987;32.638;-115.438;2022-12-18T03:20:10;59.80;;;35.00;;
61104;SDS011;46987;32.638;-115.438;2022-12-18T03:22:38;49.15;;;28.17;;
61104;SDS011;46987;32.638;-115.438;2022-12-18T03:25:07;53.85;;;30.17;;
61104;SDS011;46987;32.638;-115.438;2022-12-18T03:27:37;49.20;;;30.27;;
61104;SDS011;46987;32.638;-115.438;2022-12-18T03:30:12;48.13;;;23.40;;
61104;SDS011;46987;32.638;-115.438;2022-12-18T03:32:40;46.67;;;22.05;;
61104;SDS011;46987;32.638;-115.438;2022-12-18T03:35:09;46.70;;;24.70;;
61104;SDS011;46987;32.638;-115.438;2022-12-18T03:37:37;45.70;;;24.77;;
61104;SDS011;46987;32.638;-115.438;2022-12-18T03:40:04;48.05;;;23.73;;
61104;SDS011;46987;32.638;-115.438;2022-12-18T03:42:34;35.28;;;15.82;;
61104;SDS011;46987;32.638;-115.438;2022-12-18T03:45:09;32.45;;;16.33;;
61104;SDS011;46987;32.638;-115.438;2022-12-18T03:47:41;35.05;;;17.15;;
61104;SDS011;46987;32.638;-115.438;2022-12-18T03:50:11;44.65;;;17.85;;
61104;SDS011;46987;32.638;-115.438;2022-12-18T03:52:45;23.25;;;15.68;;
61104;SDS011;46987;32.638;-115.438;2022-12-18T03:55:15;25.10;;;14.60;;
61104;SDS011;46987;32.638;-115.438;2022-12-18T03:57:45;31.25;;;14.68;;
61104;SDS011;46987;32.638;-115.438;2022-12-18T04:00:13;31.25;;;16.65;;
61104;SDS011;46987;32.638;-115.438;2022-12-18T04:02:42;30.20;;;16.20;;
61104;SDS011;46987;32.638;-115.438;2022-12-18T04:05:12;31.15;;;16.42;;
61104;SDS011;46987;32.638;-115.438;2022-12-18T04:07:41;26.48;;;15.43;;
61104;SDS011;46987;32.638;-115.438;2022-12-18T04:10:10;32.42;;;18.80;;
61104;SDS011;46987;32.638;-115.438;2022-12-18T04:12:38;54.05;;;31.88;;
61104;SDS011;46987;32.638;-115.438;2022-12-18T04:15:07;51.90;;;26.67;;
61104;SDS011;46987;32.638;-115.438;2022-12-18T04:17:34;44.30;;;24.80;;
61104;SDS011;46987;32.638;-115.438;2022-12-18T04:20:03;43.60;;;24.67;;
61104;SDS011;46987;32.638;-115.438;2022-12-18T04:22:31;40.78;;;22.42;;
61104;SDS011;46987;32.638;-115.438;2022-12-18T04:25:01;35.40;;;21.17;;
61104;SDS011;46987;32.638;-115.438;2022-12-18T04:27:35;30.73;;;18.75;;
61104;SDS011;46987;32.638;-115.438;2022-12-18T04:30:04;36.22;;;21.05;;
61104;SDS011;46987;32.638;-115.438;2022-12-18T04:32:33;47.72;;;20.98;;
61104;SDS011;46987;32.638;-115.438;2022-12-18T04:35:00;43.10;;;22.60;;
61104;SDS011;46987;32.638;-115.438;2022-12-18T04:37:29;42.70;;;20.50;;
61104;SDS011;46987;32.638;-115.438;2022-12-18T04:39:56;37.22;;;18.75;;
61104;SDS011;46987;32.638;-115.438;2022-12-18T04:42:30;38.90;;;18.55;;
61104;SDS011;46987;32.638;-115.438;2022-12-18T04:45:04;30.58;;;16.83;;
61104;SDS011;46987;32.638;-115.438;2022-12-18T04:47:30;33.70;;;18.30;;
61104;SDS011;46987;32.638;-115.438;2022-12-18T04:49:59;32.60;;;16.15;;
61104;SDS011;46987;32.638;-115.438;2022-12-18T04:52:26;29.05;;;15.80;;
61104;SDS011;46987;32.638;-115.438;2022-12-18T04:54:54;29.60;;;15.73;;
61104;SDS011;46987;32.638;-115.438;2022-12-18T04:57:21;34.15;;;17.45;;
61104;SDS011;46987;32.638;-115.438;2022-12-18T04:59:53;30.38;;;15.80;;
61104;SDS011;46987;32.638;-115.438;2022-12-18T05:02:22;32.45;;;16.05;;
61104;SDS011;46987;32.638;-115.438;2022-12-18T05:04:49;24.33;;;14.65;;
61104;SDS011;46987;32.638;-115.438;2022-12-18T05:07:22;28.02;;;14.00;;
61104;SDS011;46987;32.638;-115.438;2022-12-18T05:09:49;22.15;;;12.55;;
61104;SDS011;46987;32.638;-115.438;2022-12-18T05:12:17;34.22;;;13.65;;
61104;SDS011;46987;32.638;-115.438;2022-12-18T05:14:43;35.22;;;15.10;;
61104;SDS011;46987;32.638;-115.438;2022-12-18T05:20:29;31.73;;;14.23;;
61104;SDS011;46987;32.638;-115.438;2022-12-18T05:22:55;27.25;;;15.90;;
61104;SDS011;46987;32.638;-115.438;2022-12-18T05:25:22;29.77;;;15.55;;
61104;SDS011;46987;32.638;-115.438;2022-12-18T05:27:50;32.08;;;16.33;;
61104;SDS011;46987;32.638;-115.438;2022-12-18T05:30:17;36.70;;;17.85;;
61104;SDS011;46987;32.638;-115.438;2022-12-18T05:32:43;30.75;;;16.33;;
61104;SDS011;46987;32.638;-115.438;2022-12-18T05:35:10;34.20;;;17.00;;
61104;SDS011;46987;32.638;-115.438;2022-12-18T05:37:37;47.38;;;23.63;;
61104;SDS011;46987;32.638;-115.438;2022-12-18T05:40:03;37.10;;;21.95;;
61104;SDS011;46987;32.638;-115.438;2022-12-18T05:42:30;48.72;;;21.67;;
61104;SDS011;46987;32.638;-115.438;2022-12-18T05:44:58;45.15;;;21.98;;
61104;SDS011;46987;32.638;-115.438;2022-12-18T05:47:26;45.45;;;23.83;;
61104;SDS011;46987;32.638;-115.438;2022-12-18T05:49:53;52.05;;;24.73;;
61104;SDS011;46987;32.638;-115.438;2022-12-18T05:52:19;46.95;;;25.30;;
61104;SDS011;46987;32.638;-115.438;2022-12-18T05:54:46;52.63;;;24.40;;
61104;SDS011;46987;32.638;-115.438;2022-12-18T05:57:12;51.63;;;24.80;;
61104;SDS011;46987;32.638;-115.438;2022-12-18T05:59:39;48.38;;;25.00;;
61104;SDS011;46987;32.638;-115.438;2022-12-18T06:02:07;44.85;;;22.67;;
61104;SDS011;46987;32.638;-115.438;2022-12-18T06:04:34;50.17;;;23.15;;
61104;SDS011;46987;32.638;-115.438;2022-12-18T06:07:00;43.08;;;22.95;;
61104;SDS011;46987;32.638;-115.438;2022-12-18T06:09:29;37.00;;;21.52;;
61104;SDS011;46987;32.638;-115.438;2022-12-18T06:11:55;54.92;;;23.20;;
61104;SDS011;46987;32.638;-115.438;2022-12-18T06:14:25;38.03;;;22.73;;
61104;SDS011;46987;32.638;-115.438;2022-12-18T06:16:51;40.63;;;24.13;;
61104;SDS011;46987;32.638;-115.438;2022-12-18T06:19:19;47.03;;;23.98;;
61104;SDS011;46987;32.638;-115.438;2022-12-18T06:21:46;42.58;;;23.48;;
61104;SDS011;46987;32.638;-115.438;2022-12-18T06:24:13;45.78;;;22.80;;
61104;SDS011;46987;32.638;-115.438;2022-12-18T06:26:39;45.38;;;25.42;;
61104;SDS011;46987;32.638;-115.438;2022-12-18T06:29:08;58.03;;;24.65;;
61104;SDS011;46987;32.638;-115.438;2022-12-18T06:31:35;50.72;;;24.73;;
61104;SDS011;46987;32.638;-115.438;2022-12-18T06:34:02;47.05;;;23.85;;
61104;SDS011;46987;32.638;-115.438;2022-12-18T06:36:33;52.08;;;23.42;;
61104;SDS011;46987;32.638;-115.438;2022-12-18T06:39:00;43.83;;;23.70;;
61104;SDS011;46987;32.638;-115.438;2022-12-18T06:41:26;50.78;;;22.85;;
61104;SDS011;46987;32.638;-115.438;2022-12-18T06:43:53;52.42;;;24.00;;
61104;SDS011;46987;32.638;-115.438;2022-12-18T06:46:19;48.65;;;24.98;;
61104;SDS011;46987;32.638;-115.438;2022-12-18T06:48:46;61.60;;;28.95;;
61104;SDS011;46987;32.638;-115.438;2022-12-18T06:51:15;52.25;;;26.45;;
61104;SDS011;46987;32.638;-115.438;2022-12-18T06:53:43;48.05;;;24.42;;
61104;SDS011;46987;32.638;-115.438;2022-12-18T06:56:10;45.45;;;24.48;;
61104;SDS011;46987;32.638;-115.438;2022-12-18T06:58:37;49.90;;;23.90;;
61104;SDS011;46987;32.638;-115.438;2022-12-18T07:01:04;53.78;;;27.45;;
61104;SDS011;46987;32.638;-115.438;2022-12-18T07:03:31;48.30;;;27.73;;
61104;SDS011;46987;32.638;-115.438;2022-12-18T07:05:57;51.30;;;27.52;;
61104;SDS011;46987;32.638;-115.438;2022-12-18T07:08:24;52.22;;;24.27;;
61104;SDS011;46987;32.638;-115.438;2022-12-18T07:10:52;47.20;;;23.40;;
61104;SDS011;46987;32.638;-115.438;2022-12-18T07:13:20;47.13;;;23.60;;
61104;SDS011;46987;32.638;-115.438;2022-12-18T07:15:46;46.20;;;23.90;;
61104;SDS011;46987;32.638;-115.438;2022-12-18T07:18:13;54.20;;;24.25;;
61104;SDS011;46987;32.638;-115.438;2022-12-18T07:20:40;40.38;;;22.45;;
61104;SDS011;46987;32.638;-115.438;2022-12-18T07:23:06;46.58;;;21.05;;
61104;SDS011;46987;32.638;-115.438;2022-12-18T07:25:33;34.55;;;20.05;;
61104;SDS011;46987;32.638;-115.438;2022-12-18T07:28:02;39.33;;;20.60;;
61104;SDS011;46987;32.638;-115.438;2022-12-18T07:30:28;37.58;;;19.05;;
61104;SDS011;46987;32.638;-115.438;2022-12-18T07:32:55;38.17;;;17.30;;
61104;SDS011;46987;32.638;-115.438;2022-12-18T07:35:21;31.90;;;15.60;;
61104;SDS011;46987;32.638;-115.438;2022-12-18T07:37:48;27.98;;;14.30;;
61104;SDS011;46987;32.638;-115.438;2022-12-18T07:40:15;33.45;;;16.75;;
61104;SDS011;46987;32.638;-115.438;2022-12-18T07:42:41;37.90;;;16.80;;
61104;SDS011;46987;32.638;-115.438;2022-12-18T07:45:10;22.50;;;13.35;;
61104;SDS011;46987;32.638;-115.438;2022-12-18T07:47:36;29.40;;;12.75;;
61104;SDS011;46987;32.638;-115.438;2022-12-18T07:50:04;16.77;;;9.20;;
61104;SDS011;46987;32.638;-115.438;2022-12-18T07:52:31;19.40;;;8.55;;
61104;SDS011;46987;32.638;-115.438;2022-12-18T07:54:57;15.25;;;8.75;;
61104;SDS011;46987;32.638;-115.438;2022-12-18T07:57:24;16.45;;;7.63;;
61104;SDS011;46987;32.638;-115.438;2022-12-18T07:59:50;13.77;;;7.57;;
61104;SDS011;46987;32.638;-115.438;2022-12-18T08:02:18;18.13;;;8.65;;
61104;SDS011;46987;32.638;-115.438;2022-12-18T08:04:45;20.98;;;9.60;;
61104;SDS011;46987;32.638;-115.438;2022-12-18T08:07:11;19.00;;;9.73;;
61104;SDS011;46987;32.638;-115.438;2022-12-18T08:09:38;20.02;;;9.85;;
61104;SDS011;46987;32.638;-115.438;2022-12-18T08:12:05;17.25;;;10.40;;
61104;SDS011;46987;32.638;-115.438;2022-12-18T08:14:31;14.70;;;8.60;;
61104;SDS011;46987;32.638;-115.438;2022-12-18T08:16:58;16.95;;;8.88;;
61104;SDS011;46987;32.638;-115.438;2022-12-18T08:19:26;16.00;;;8.48;;
61104;SDS011;46987;32.638;-115.438;2022-12-18T08:21:54;20.05;;;9.02;;
61104;SDS011;46987;32.638;-115.438;2022-12-18T08:24:21;19.95;;;8.65;;
61104;SDS011;46987;32.638;-115.438;2022-12-18T08:26:47;14.52;;;8.23;;
61104;SDS011;46987;32.638;-115.438;2022-12-18T08:29:14;16.20;;;7.43;;
61104;SDS011;46987;32.638;-115.438;2022-12-18T08:31:40;14.23;;;7.60;;
61104;SDS011;46987;32.638;-115.438;2022-12-18T08:34:07;14.88;;;7.53;;
61104;SDS011;46987;32.638;-115.438;2022-12-18T08:36:35;15.38;;;6.72;;
61104;SDS011;46987;32.638;-115.438;2022-12-18T08:39:02;16.90;;;6.53;;
61104;SDS011;46987;32.638;-115.438;2022-12-18T08:41:28;15.45;;;7.65;;
61104;SDS011;46987;32.638;-115.438;2022-12-18T08:43:55;12.77;;;6.18;;
61104;SDS011;46987;32.638;-115.438;2022-12-18T08:46:40;13.73;;;5.07;;
61104;SDS011;46987;32.638;-115.438;2022-12-18T08:49:07;18.83;;;5.68;;
61104;SDS011;46987;32.638;-115.438;2022-12-18T08:51:35;10.30;;;5.68;;
61104;SDS011;46987;32.638;-115.438;2022-12-18T08:54:02;11.40;;;5.72;;
61104;SDS011;46987;32.638;-115.438;2022-12-18T08:56:29;13.57;;;5.80;;
61104;SDS011;46987;32.638;-115.438;2022-12-18T08:58:56;16.45;;;6.47;;
61104;SDS011;46987;32.638;-115.438;2022-12-18T09:01:22;11.38;;;6.18;;
61104;SDS011;46987;32.638;-115.438;2022-12-18T09:03:50;13.15;;;7.00;;
61104;SDS011;46987;32.638;-115.438;2022-12-18T09:06:16;15.13;;;6.15;;
61104;SDS011;46987;32.638;-115.438;2022-12-18T09:08:46;11.73;;;6.45;;
61104;SDS011;46987;32.638;-115.438;2022-12-18T09:11:13;18.17;;;6.88;;
61104;SDS011;46987;32.638;-115.438;2022-12-18T09:13:40;12.75;;;7.07;;
61104;SDS011;46987;32.638;-115.438;2022-12-18T09:16:06;16.58;;;6.32;;
61104;SDS011;46987;32.638;-115.438;2022-12-18T09:18:33;11.60;;;6.38;;
61104;SDS011;46987;32.638;-115.438;2022-12-18T09:20:59;13.48;;;6.43;;
61104;SDS011;46987;32.638;-115.438;2022-12-18T09:23:26;13.55;;;6.20;;
61104;SDS011;46987;32.638;-115.438;2022-12-18T09:25:59;16.52;;;6.18;;
61104;SDS011;46987;32.638;-115.438;2022-12-18T09:28:26;11.95;;;4.85;;
61104;SDS011;46987;32.638;-115.438;2022-12-18T09:30:53;13.45;;;5.90;;
61104;SDS011;46987;32.638;-115.438;2022-12-18T09:33:19;11.25;;;4.60;;
61104;SDS011;46987;32.638;-115.438;2022-12-18T09:35:46;13.50;;;5.05;;
61104;SDS011;46987;32.638;-115.438;2022-12-18T09:38:13;8.90;;;4.90;;
61104;SDS011;46987;32.638;-115.438;2022-12-18T09:40:40;10.95;;;4.80;;
61104;SDS011;46987;32.638;-115.438;2022-12-18T09:43:13;11.93;;;4.57;;
61104;SDS011;46987;32.638;-115.438;2022-12-18T09:45:41;11.55;;;5.57;;
61104;SDS011;46987;32.638;-115.438;2022-12-18T09:48:09;11.38;;;4.28;;
61104;SDS011;46987;32.638;-115.438;2022-12-18T09:50:37;15.68;;;4.70;;
61104;SDS011;46987;32.638;-115.438;2022-12-18T09:53:06;10.93;;;4.30;;
61104;SDS011;46987;32.638;-115.438;2022-12-18T09:55:34;14.88;;;4.47;;
61104;SDS011;46987;32.638;-115.438;2022-12-18T09:58:02;13.30;;;4.78;;
61104;SDS011;46987;32.638;-115.438;2022-12-18T10:00:33;11.68;;;4.32;;
61104;SDS011;46987;32.638;-115.438;2022-12-18T10:03:00;11.07;;;4.43;;
61104;SDS011;46987;32.638;-115.438;2022-12-18T10:05:29;14.90;;;4.15;;
61104;SDS011;46987;32.638;-115.438;2022-12-18T10:08:01;11.18;;;3.85;;
61104;SDS011;46987;32.638;-115.438;2022-12-18T10:10:32;15.07;;;3.83;;
61104;SDS011;46987;32.638;-115.438;2022-12-18T10:13:02;13.63;;;4.60;;
61104;SDS011;46987;32.638;-115.438;2022-12-18T10:15:36;12.40;;;4.95;;
61104;SDS011;46987;32.638;-115.438;2022-12-18T10:18:14;12.38;;;4.63;;
61104;SDS011;46987;32.638;-115.438;2022-12-18T10:20:44;13.93;;;5.10;;
61104;SDS011;46987;32.638;-115.438;2022-12-18T10:23:12;12.40;;;5.75;;
61104;SDS011;46987;32.638;-115.438;2022-12-18T10:25:46;13.98;;;5.78;;
61104;SDS011;46987;32.638;-115.438;2022-12-18T10:28:14;14.00;;;6.35;;
61104;SDS011;46987;32.638;-115.438;2022-12-18T10:30:42;12.05;;;6.40;;
61104;SDS011;46987;32.638;-115.438;2022-12-18T10:33:10;15.57;;;7.25;;
61104;SDS011;46987;32.638;-115.438;2022-12-18T10:35:37;16.75;;;6.68;;
61104;SDS011;46987;32.638;-115.438;2022-12-18T10:38:07;19.27;;;6.40;;
61104;SDS011;46987;32.638;-115.438;2022-12-18T10:40:50;11.38;;;5.07;;
61104;SDS011;46987;32.638;-115.438;2022-12-18T10:43:20;12.27;;;6.03;;
61104;SDS011;46987;32.638;-115.438;2022-12-18T10:45:59;12.07;;;5.90;;
61104;SDS011;46987;32.638;-115.438;2022-12-18T10:48:26;13.52;;;5.10;;
61104;SDS011;46987;32.638;-115.438;2022-12-18T10:50:53;14.63;;;5.70;;
61104;SDS011;46987;32.638;-115.438;2022-12-18T10:53:20;11.30;;;4.82;;
61104;SDS011;46987;32.638;-115.438;2022-12-18T10:55:47;9.82;;;5.60;;
61104;SDS011;46987;32.638;-115.438;2022-12-18T10:58:20;10.05;;;5.25;;
61104;SDS011;46987;32.638;-115.438;2022-12-18T11:01:01;11.75;;;5.45;;
61104;SDS011;46987;32.638;-115.438;2022-12-18T11:03:33;14.63;;;5.55;;
61104;SDS011;46987;32.638;-115.438;2022-12-18T11:06:04;14.20;;;6.00;;
61104;SDS011;46987;32.638;-115.438;2022-12-18T11:08:31;10.65;;;5.85;;
61104;SDS011;46987;32.638;-115.438;2022-12-18T11:10:58;18.58;;;7.18;;
61104;SDS011;46987;32.638;-115.438;2022-12-18T11:13:26;25.85;;;7.65;;
61104;SDS011;46987;32.638;-115.438;2022-12-18T11:15:53;17.30;;;8.18;;
61104;SDS011;46987;32.638;-115.438;2022-12-18T11:18:20;21.15;;;9.48;;
61104;SDS011;46987;32.638;-115.438;2022-12-18T11:20:53;20.67;;;9.65;;
61104;SDS011;46987;32.638;-115.438;2022-12-18T11:23:21;24.77;;;12.60;;
61104;SDS011;46987;32.638;-115.438;2022-12-18T11:25:52;30.27;;;11.93;;
61104;SDS011;46987;32.638;-115.438;2022-12-18T11:31:17;27.00;;;13.05;;
61104;SDS011;46987;32.638;-115.438;2022-12-18T11:33:44;28.48;;;13.02;;
61104;SDS011;46987;32.638;-115.438;2022-12-18T11:36:14;44.78;;;13.05;;
61104;SDS011;46987;32.638;-115.438;2022-12-18T11:38:41;30.27;;;13.45;;
61104;SDS011;46987;32.638;-115.438;2022-12-18T11:41:13;27.95;;;14.55;;
61104;SDS011;46987;32.638;-115.438;2022-12-18T11:43:44;31.85;;;14.70;;
61104;SDS011;46987;32.638;-115.438;2022-12-18T11:46:14;31.77;;;12.95;;
61104;SDS011;46987;32.638;-115.438;2022-12-18T11:48:42;28.77;;;12.63;;
61104;SDS011;46987;32.638;-115.438;2022-12-18T11:51:11;27.50;;;11.77;;
61104;SDS011;46987;32.638;-115.438;2022-12-18T11:53:41;33.40;;;12.30;;
61104;SDS011;46987;32.638;-115.438;2022-12-18T11:56:13;29.25;;;13.32;;
61104;SDS011;46987;32.638;-115.438;2022-12-18T11:58:47;27.65;;;12.85;;
61104;SDS011;46987;32.638;-115.438;2022-12-18T12:01:27;29.23;;;13.40;;
61104;SDS011;46987;32.638;-115.438;2022-12-18T12:06:41;29.35;;;12.73;;
61104;SDS011;46987;32.638;-115.438;2022-12-18T12:09:18;33.70;;;12.10;;
61104;SDS011;46987;32.638;-115.438;2022-12-18T12:11:53;38.85;;;14.70;;
61104;SDS011;46987;32.638;-115.438;2022-12-18T12:14:33;30.17;;;15.27;;
61104;SDS011;46987;32.638;-115.438;2022-12-18T12:17:03;36.08;;;16.98;;
61104;SDS011;46987;32.638;-115.438;2022-12-18T12:19:38;45.28;;;18.92;;
61104;SDS011;46987;32.638;-115.438;2022-12-18T12:22:07;37.53;;;17.75;;
61104;SDS011;46987;32.638;-115.438;2022-12-18T12:24:39;35.90;;;20.55;;
61104;SDS011;46987;32.638;-115.438;2022-12-18T12:27:10;39.50;;;21.40;;
61104;SDS011;46987;32.638;-115.438;2022-12-18T12:29:42;38.08;;;19.10;;
61104;SDS011;46987;32.638;-115.438;2022-12-18T12:32:17;39.20;;;20.23;;
61104;SDS011;46987;32.638;-115.438;2022-12-18T12:34:48;38.85;;;18.88;;
61104;SDS011;46987;32.638;-115.438;2022-12-18T12:37:20;42.10;;;19.88;;
61104;SDS011;46987;32.638;-115.438;2022-12-18T12:39:52;34.13;;;19.15;;
61104;SDS011;46987;32.638;-115.438;2022-12-18T12:42:20;43.10;;;19.73;;
61104;SDS011;46987;32.638;-115.438;2022-12-18T12:45:11;36.83;;;19.17;;
61104;SDS011;46987;32.638;-115.438;2022-12-18T12:47:40;34.77;;;18.13;;
61104;SDS011;46987;32.638;-115.438;2022-12-18T12:50:12;42.92;;;20.35;;
61104;SDS011;46987;32.638;-115.438;2022-12-18T12:52:39;31.40;;;17.63;;
61104;SDS011;46987;32.638;-115.438;2022-12-18T12:55:13;31.77;;;17.42;;
61104;SDS011;46987;32.638;-115.438;2022-12-18T13:00:08;29.38;;;14.68;;
61104;SDS011;46987;32.638;-115.438;2022-12-18T13:02:36;41.80;;;17.70;;
61104;SDS011;46987;32.638;-115.438;2022-12-18T13:05:14;33.67;;;16.42;;
61104;SDS011;46987;32.638;-115.438;2022-12-18T13:07:46;24.42;;;15.40;;
61104;SDS011;46987;32.638;-115.438;2022-12-18T13:10:22;33.17;;;15.48;;
61104;SDS011;46987;32.638;-115.438;2022-12-18T13:12:53;32.33;;;15.20;;
61104;SDS011;46987;32.638;-115.438;2022-12-18T13:15:23;28.17;;;15.38;;
61104;SDS011;46987;32.638;-115.438;2022-12-18T13:18:02;30.08;;;14.07;;
61104;SDS011;46987;32.638;-115.438;2022-12-18T13:20:32;35.63;;;14.77;;
61104;SDS011;46987;32.638;-115.438;2022-12-18T13:22:59;35.28;;;13.82;;
61104;SDS011;46987;32.638;-115.438;2022-12-18T13:25:34;25.52;;;13.85;;
61104;SDS011;46987;32.638;-115.438;2022-12-18T13:28:02;27.43;;;14.17;;
61104;SDS011;46987;32.638;-115.438;2022-12-18T13:36:14;34.47;;;14.65;;
61104;SDS011;46987;32.638;-115.438;2022-12-18T13:38:41;29.75;;;15.88;;
61104;SDS011;46987;32.638;-115.438;2022-12-18T13:43:50;25.70;;;14.15;;
61104;SDS011;46987;32.638;-115.438;2022-12-18T13:46:21;29.20;;;14.60;;
61104;SDS011;46987;32.638;-115.438;2022-12-18T13:48:50;22.25;;;13.30;;
61104;SDS011;46987;32.638;-115.438;2022-12-18T13:51:17;33.28;;;14.68;;
61104;SDS011;46987;32.638;-115.438;2022-12-18T13:53:45;28.20;;;14.65;;
61104;SDS011;46987;32.638;-115.438;2022-12-18T13:56:16;27.73;;;13.95;;
61104;SDS011;46987;32.638;-115.438;2022-12-18T13:58:44;28.65;;;14.07;;
61104;SDS011;46987;32.638;-115.438;2022-12-18T14:01:22;23.70;;;13.70;;
61104;SDS011;46987;32.638;-115.438;2022-12-18T14:03:49;25.23;;;13.85;;
61104;SDS011;46987;32.638;-115.438;2022-12-18T14:06:18;25.90;;;15.70;;
61104;SDS011;46987;32.638;-115.438;2022-12-18T14:08:46;27.60;;;13.48;;
61104;SDS011;46987;32.638;-115.438;2022-12-18T14:11:18;22.60;;;13.15;;
61104;SDS011;46987;32.638;-115.438;2022-12-18T14:13:45;30.00;;;13.90;;
61104;SDS011;46987;32.638;-115.438;2022-12-18T14:16:13;25.73;;;13.05;;
61104;SDS011;46987;32.638;-115.438;2022-12-18T14:18:44;37.72;;;14.02;;
61104;SDS011;46987;32.638;-115.438;2022-12-18T14:21:17;26.20;;;14.13;;
61104;SDS011;46987;32.638;-115.438;2022-12-18T14:23:44;25.42;;;15.15;;
61104;SDS011;46987;32.638;-115.438;2022-12-18T14:26:20;29.38;;;15.27;;
61104;SDS011;46987;32.638;-115.438;2022-12-18T14:28:47;38.88;;;15.43;;
61104;SDS011;46987;32.638;-115.438;2022-12-18T14:31:17;27.27;;;14.70;;
61104;SDS011;46987;32.638;-115.438;2022-12-18T14:33:45;29.58;;;15.23;;
61104;SDS011;46987;32.638;-115.438;2022-12-18T14:36:14;27.42;;;14.13;;
61104;SDS011;46987;32.638;-115.438;2022-12-18T14:38:47;27.30;;;14.52;;
61104;SDS011;46987;32.638;-115.438;2022-12-18T14:41:14;34.08;;;15.98;;